Time;durP1;ratioP1;P1;durP2;ratioP2;P2;SDS_P1;SDS_P2;PMS_P1;PMS_P2;Temp;Humidity;BMP_temperature;BMP_pressure;BME280_temperature;BME280_humidity;BME280_pressure;Samples;Min_cycle;Max_cycle;Signal;HPM_P1;HPM_P2
2022/07/05 00:01:08;;;;;;;;;29.67;28.67;32.70;39.40;;;;;;5078923;28;11485;-82
2022/07/05 00:03:34;;;;;;;;;27.00;26.00;32.70;39.20;;;;;;5097556;28;8756;-83
2022/07/05 00:06:00;;;;;;;;;26.33;26.00;32.70;39.10;;;;;;5096942;28;8775;-83
2022/07/05 00:08:26;;;;;;;;;28.00;28.00;32.70;39.00;;;;;;5096561;28;8866;-83
2022/07/05 00:10:52;;;;;;;;;32.67;30.33;32.70;39.00;;;;;;5096786;28;8796;-83
2022/07/05 00:13:18;;;;;;;;;32.00;30.00;32.70;39.00;;;;;;5097148;28;8764;-80
2022/07/05 00:15:43;;;;;;;;;28.00;28.00;32.70;39.00;;;;;;5096629;28;8934;-80
2022/07/05 00:18:09;;;;;;;;;29.33;28.33;32.70;39.10;;;;;;5096615;28;8903;-79
2022/07/05 00:20:35;;;;;;;;;27.00;25.67;32.70;39.30;;;;;;5096559;28;8800;-80
2022/07/05 00:23:01;;;;;;;;;22.67;22.67;32.70;39.40;;;;;;5096665;28;8756;-80
2022/07/05 00:25:27;;;;;;;;;27.67;26.33;32.70;39.10;;;;;;5096503;28;8780;-81
2022/07/05 00:27:55;;;;;;;;;30.00;29.00;32.60;39.10;;;;;;5096779;28;8764;-78
2022/07/05 00:30:21;;;;;;;;;27.33;26.33;32.60;39.40;;;;;;5096531;28;8768;-79
2022/07/05 00:32:47;;;;;;;;;27.67;26.33;32.60;39.40;;;;;;5096358;28;8829;-78
2022/07/05 00:35:13;;;;;;;;;27.67;27.67;32.60;39.40;;;;;;5096727;28;8814;-80
2022/07/05 00:37:39;;;;;;;;;28.33;27.00;32.60;39.30;;;;;;5094545;28;8794;-78
2022/07/05 00:40:07;;;;;;;;;32.67;31.33;32.60;39.20;;;;;;5096195;28;8800;-79
2022/07/05 00:42:33;;;;;;;;;31.00;30.00;32.50;39.40;;;;;;5096230;28;8786;-81
2022/07/05 00:44:59;;;;;;;;;34.00;28.33;32.50;39.40;;;;;;5096144;28;8752;-79
2022/07/05 00:47:25;;;;;;;;;28.00;26.00;32.50;39.40;;;;;;5096311;28;8799;-80
2022/07/05 00:49:51;;;;;;;;;30.00;29.67;32.50;39.30;;;;;;5078503;28;9440;-81
2022/07/05 00:52:17;;;;;;;;;29.00;28.33;32.50;39.40;;;;;;5095954;28;8876;-82
2022/07/05 00:54:42;;;;;;;;;25.00;25.00;32.40;39.50;;;;;;5096034;28;8783;-80
2022/07/05 00:57:08;;;;;;;;;31.33;30.33;32.40;39.60;;;;;;5095975;28;8764;-80
2022/07/05 00:59:35;;;;;;;;;26.67;25.67;32.40;39.60;;;;;;5096051;28;8815;-79
2022/07/05 01:02:01;;;;;;;;;27.67;27.67;32.40;39.70;;;;;;5096229;28;9408;-81
2022/07/05 01:04:27;;;;;;;;;27.67;27.67;32.30;39.60;;;;;;5077907;28;9476;-79
2022/07/05 01:06:53;;;;;;;;;32.33;31.33;32.30;39.80;;;;;;5096037;28;8770;-80
2022/07/05 01:09:21;;;;;;;;;33.67;31.33;32.30;39.90;;;;;;5095986;28;9441;-81
2022/07/05 01:11:48;;;;;;;;;31.00;29.00;32.20;39.80;;;;;;5095737;28;8784;-79
2022/07/05 01:14:17;;;;;;;;;29.00;26.67;32.20;39.90;;;;;;5095849;28;8763;-81
2022/07/05 01:16:43;;;;;;;;;28.00;28.00;32.20;39.80;;;;;;5095593;28;8772;-80
2022/07/05 01:19:11;;;;;;;;;30.33;29.33;32.30;40.20;;;;;;5094478;28;9462;-81
2022/07/05 01:21:48;;;;;;;;;30.00;29.00;32.20;40.00;;;;;;5077816;28;9620;-81
2022/07/05 01:24:17;;;;;;;;;30.67;30.33;32.20;40.00;;;;;;5095653;28;8756;-80
2022/07/05 01:26:47;;;;;;;;;31.00;29.33;32.20;40.00;;;;;;5095670;28;8813;-82
2022/07/05 01:29:12;;;;;;;;;29.67;29.00;32.10;40.30;;;;;;5096437;28;8786;-80
2022/07/05 01:31:39;;;;;;;;;31.33;30.00;32.20;40.40;;;;;;5095685;28;8775;-81
2022/07/05 01:34:06;;;;;;;;;30.67;30.00;32.10;40.30;;;;;;5095286;28;8760;-80
2022/07/05 01:36:33;;;;;;;;;27.33;25.67;32.00;40.30;;;;;;5095524;28;9421;-81
2022/07/05 01:39:01;;;;;;;;;28.00;26.67;32.00;40.40;;;;;;5095439;28;8804;-80
2022/07/05 01:41:27;;;;;;;;;26.00;26.00;32.00;40.70;;;;;;5095502;28;9489;-81
2022/07/05 01:43:53;;;;;;;;;39.33;34.00;32.00;40.70;;;;;;5095454;28;8740;-83
2022/07/05 01:46:22;;;;;;;;;30.33;30.00;31.90;40.60;;;;;;5095075;28;9385;-81
2022/07/05 01:48:51;;;;;;;;;34.00;32.67;31.90;40.70;;;;;;5095160;28;8810;-80
2022/07/05 01:51:32;;;;;;;;;34.00;31.67;31.90;41.10;;;;;;5094997;28;8876;-80
2022/07/05 01:53:58;;;;;;;;;33.00;32.00;31.90;41.10;;;;;;5077029;28;8792;-80
2022/07/05 01:56:24;;;;;;;;;29.33;29.33;31.90;41.50;;;;;;5094891;28;8771;-79
2022/07/05 01:58:51;;;;;;;;;34.33;32.33;31.80;42.10;;;;;;5094994;28;8804;-80
2022/07/05 02:01:32;;;;;;;;;34.33;32.33;31.90;42.20;;;;;;5095040;28;8768;-79
2022/07/05 02:03:59;;;;;;;;;30.67;29.67;31.80;42.30;;;;;;5076933;28;8771;-79
2022/07/05 02:06:24;;;;;;;;;34.33;32.00;31.90;42.20;;;;;;5094563;28;8775;-80
2022/07/05 02:08:50;;;;;;;;;34.00;32.00;31.80;42.30;;;;;;5094643;28;8796;-79
2022/07/05 02:11:16;;;;;;;;;33.33;32.00;31.90;42.70;;;;;;5094719;28;8752;-80
2022/07/05 02:13:42;;;;;;;;;34.00;32.00;31.80;42.10;;;;;;5094900;28;8778;-81
2022/07/05 02:16:07;;;;;;;;;37.67;32.67;31.80;42.00;;;;;;5094623;28;8760;-79
2022/07/05 02:18:33;;;;;;;;;33.00;31.67;31.80;42.10;;;;;;5094321;28;8916;-79
2022/07/05 02:20:59;;;;;;;;;36.33;32.00;31.80;42.20;;;;;;5094656;28;8768;-79
2022/07/05 02:23:25;;;;;;;;;38.33;34.67;31.70;42.30;;;;;;5094493;28;8806;-79
2022/07/05 02:25:51;;;;;;;;;35.33;33.00;31.70;42.40;;;;;;5094821;28;8748;-80
2022/07/05 02:28:17;;;;;;;;;37.33;34.00;31.70;42.50;;;;;;5076673;28;9472;-80
2022/07/05 02:30:43;;;;;;;;;32.33;31.33;31.70;42.50;;;;;;5094468;28;8764;-79
2022/07/05 02:33:09;;;;;;;;;37.00;33.00;31.80;42.70;;;;;;5094542;28;8790;-79
2022/07/05 02:35:35;;;;;;;;;37.33;33.00;31.70;42.70;;;;;;5095025;28;8786;-79
2022/07/05 02:38:00;;;;;;;;;35.67;32.67;31.70;42.80;;;;;;5094406;28;8868;-81
2022/07/05 02:40:26;;;;;;;;;31.00;30.00;31.70;42.90;;;;;;5094400;28;8803;-79
2022/07/05 02:42:52;;;;;;;;;36.67;32.67;31.70;43.00;;;;;;5094399;28;8748;-80
2022/07/05 02:45:18;;;;;;;;;38.67;32.67;31.60;43.00;;;;;;5094628;28;8763;-80
2022/07/05 02:47:43;;;;;;;;;36.33;33.33;31.70;43.30;;;;;;5094218;28;8784;-80
2022/07/05 02:50:10;;;;;;;;;34.00;32.00;31.60;43.60;;;;;;5094192;28;8802;-81
2022/07/05 02:52:36;;;;;;;;;34.00;32.00;31.60;43.60;;;;;;5094571;28;8764;-81
2022/07/05 02:55:05;;;;;;;;;37.67;33.67;31.60;43.70;;;;;;5094267;28;9421;-81
2022/07/05 02:57:31;;;;;;;;;38.33;34.33;31.40;43.30;;;;;;5094379;28;9439;-79
2022/07/05 02:59:57;;;;;;;;;44.33;38.00;31.20;43.00;;;;;;5076263;28;8803;-80
2022/07/05 03:02:24;;;;;;;;;40.00;34.00;31.10;43.40;;;;;;5094379;28;8799;-81
2022/07/05 03:04:49;;;;;;;;;38.67;35.33;30.70;43.90;;;;;;5094445;28;8756;-81
2022/07/05 03:07:16;;;;;;;;;43.33;36.00;30.70;43.90;;;;;;5094281;28;8764;-80
2022/07/05 03:09:41;;;;;;;;;41.67;36.00;30.80;44.00;;;;;;5094289;28;8772;-80
2022/07/05 03:12:07;;;;;;;;;37.00;34.00;30.90;43.80;;;;;;5094083;28;8760;-81
2022/07/05 03:14:33;;;;;;;;;46.00;36.67;31.00;43.60;;;;;;5094094;28;8764;-79
2022/07/05 03:16:59;;;;;;;;;43.67;37.33;31.00;43.30;;;;;;5094229;28;8791;-80
2022/07/05 03:19:25;;;;;;;;;44.00;37.67;31.00;43.30;;;;;;5093681;28;8863;-80
2022/07/05 03:21:51;;;;;;;;;43.67;38.00;30.60;43.90;;;;;;5093957;28;8760;-82
2022/07/05 03:24:17;;;;;;;;;47.33;39.33;30.50;44.20;;;;;;5076484;28;8756;-80
2022/07/05 03:26:43;;;;;;;;;47.33;40.33;30.50;44.30;;;;;;5094183;28;8776;-80
2022/07/05 03:29:09;;;;;;;;;52.00;43.33;30.60;44.40;;;;;;5094345;28;8756;-82
2022/07/05 03:31:35;;;;;;;;;53.33;44.33;30.70;44.10;;;;;;5094077;28;9453;-80
2022/07/05 03:34:01;;;;;;;;;55.00;44.33;30.70;43.90;;;;;;5093918;28;8769;-80
2022/07/05 03:36:27;;;;;;;;;50.33;41.33;30.80;43.90;;;;;;5094116;28;8764;-79
2022/07/05 03:38:52;;;;;;;;;50.33;42.33;30.90;43.80;;;;;;5093801;28;8788;-79
2022/07/05 03:41:18;;;;;;;;;52.33;44.00;30.90;43.70;;;;;;5093816;28;9437;-78
2022/07/05 03:43:44;;;;;;;;;48.00;40.67;30.90;43.80;;;;;;5096393;28;8748;-80
2022/07/05 03:46:10;;;;;;;;;46.67;40.00;31.00;44.00;;;;;;5097331;28;8791;-80
2022/07/05 03:48:36;;;;;;;;;46.67;38.00;31.00;44.30;;;;;;5097442;28;8800;-79
2022/07/05 03:51:01;;;;;;;;;47.00;40.33;30.90;44.40;;;;;;5097245;28;8882;-80
2022/07/05 03:53:27;;;;;;;;;43.67;38.00;30.90;44.40;;;;;;5097408;28;8810;-80
2022/07/05 03:55:53;;;;;;;;;44.33;37.33;30.90;44.40;;;;;;5097254;28;8752;-80
2022/07/05 03:58:19;;;;;;;;;40.67;35.33;30.90;44.40;;;;;;5079312;28;8884;-79
2022/07/05 04:00:45;;;;;;;;;47.67;39.33;30.90;44.40;;;;;;5096946;28;8783;-80
2022/07/05 04:03:11;;;;;;;;;43.00;36.67;30.90;44.40;;;;;;5097050;28;8768;-81
2022/07/05 04:05:36;;;;;;;;;44.00;36.00;31.00;44.60;;;;;;5096951;28;8779;-80
2022/07/05 04:08:02;;;;;;;;;45.67;39.67;31.00;44.40;;;;;;5097526;28;8768;-79
2022/07/05 04:10:28;;;;;;;;;45.33;38.67;31.00;44.40;;;;;;5097383;28;8764;-81
2022/07/05 04:12:54;;;;;;;;;52.33;43.33;31.00;44.40;;;;;;5096800;28;8787;-79
2022/07/05 04:15:20;;;;;;;;;56.67;45.00;31.00;44.30;;;;;;5096814;28;8764;-79
2022/07/05 04:17:54;;;;;;;;;56.25;45.00;30.80;44.50;;;;;;5096791;28;8850;-81
2022/07/05 04:20:21;;;;;;;;;56.25;47.00;30.70;44.30;;;;;;5078688;28;8803;-79
2022/07/05 04:22:51;;;;;;;;;57.50;46.75;30.70;44.50;;;;;;5096987;28;8780;-80
2022/07/05 04:25:17;;;;;;;;;53.50;44.25;30.60;44.80;;;;;;5096661;28;8776;-80
2022/07/05 04:27:54;;;;;;;;;53.00;44.33;30.60;44.90;;;;;;5095622;28;8879;-80
2022/07/05 04:30:22;;;;;;;;;54.00;45.00;30.60;45.10;;;;;;5096568;28;8763;-80
2022/07/05 04:32:48;;;;;;;;;57.67;48.00;30.50;45.20;;;;;;5096540;28;8748;-81
2022/07/05 04:35:14;;;;;;;;;61.67;48.67;30.50;45.20;;;;;;5096487;28;8852;-79
2022/07/05 04:37:40;;;;;;;;;61.25;49.50;30.50;45.50;;;;;;5096415;28;8770;-80
2022/07/05 04:40:08;;;;;;;;;63.75;51.75;30.40;46.00;;;;;;5096286;28;8775;-80
2022/07/05 04:42:34;;;;;;;;;57.33;47.67;30.40;46.20;;;;;;5096351;28;8753;-80
2022/07/05 04:45:00;;;;;;;;;54.67;45.67;30.40;46.00;;;;;;5096308;28;8744;-79
2022/07/05 04:47:26;;;;;;;;;52.33;43.67;30.40;47.40;;;;;;5096401;28;8814;-79
2022/07/05 04:49:53;;;;;;;;;61.33;48.33;30.40;46.30;;;;;;5096462;28;9402;-80
2022/07/05 04:52:19;;;;;;;;;50.33;41.67;30.50;46.20;;;;;;5078409;28;8779;-81
2022/07/05 04:54:44;;;;;;;;;53.67;44.33;30.60;46.10;;;;;;5095921;28;8756;-80
2022/07/05 04:57:10;;;;;;;;;50.67;42.67;30.60;46.00;;;;;;5095979;28;8748;-79
2022/07/05 04:59:36;;;;;;;;;52.67;44.67;30.70;45.80;;;;;;5095857;28;8845;-80
2022/07/05 05:02:02;;;;;;;;;53.33;45.33;30.70;45.90;;;;;;5096256;28;8752;-81
2022/07/05 05:04:28;;;;;;;;;56.00;46.00;30.50;46.30;;;;;;5096267;28;8760;-79
2022/07/05 05:06:54;;;;;;;;;57.33;47.00;30.40;46.30;;;;;;5096131;28;8774;-80
2022/07/05 05:09:20;;;;;;;;;60.50;48.00;30.40;46.50;;;;;;5095846;28;9488;-80
2022/07/05 05:11:46;;;;;;;;;58.00;48.75;30.50;46.50;;;;;;5096054;28;8804;-79
2022/07/05 05:14:12;;;;;;;;;56.25;46.00;30.50;46.30;;;;;;5095848;28;8756;-79
2022/07/05 05:16:38;;;;;;;;;59.25;48.00;30.60;46.40;;;;;;5096016;28;9641;-79
2022/07/05 05:19:04;;;;;;;;;56.50;46.25;30.60;46.30;;;;;;5095247;28;8847;-80
2022/07/05 05:21:30;;;;;;;;;55.67;46.00;30.70;46.30;;;;;;5095706;28;8748;-80
2022/07/05 05:23:56;;;;;;;;;53.00;44.33;30.80;46.40;;;;;;5095427;28;8740;-80
2022/07/05 05:26:21;;;;;;;;;57.67;48.33;30.80;46.00;;;;;;5095460;28;8776;-79
2022/07/05 05:28:47;;;;;;;;;52.25;43.75;30.80;46.10;;;;;;5095710;28;8786;-79
2022/07/05 05:31:13;;;;;;;;;58.33;47.00;30.80;46.10;;;;;;5095992;28;8813;-79
2022/07/05 05:33:39;;;;;;;;;54.67;45.67;30.80;46.20;;;;;;5095491;28;8767;-79
2022/07/05 05:36:05;;;;;;;;;58.33;47.00;30.90;46.30;;;;;;5095200;28;8856;-80
2022/07/05 05:38:31;;;;;;;;;59.00;48.00;30.90;46.20;;;;;;5095191;28;8748;-78
2022/07/05 05:40:57;;;;;;;;;61.75;49.75;30.90;46.00;;;;;;5095494;28;8876;-79
2022/07/05 05:43:23;;;;;;;;;60.75;48.75;31.00;46.10;;;;;;5095123;28;8777;-79
2022/07/05 05:45:51;;;;;;;;;53.67;45.33;31.00;46.20;;;;;;5095748;28;8772;-79
2022/07/05 05:48:18;;;;;;;;;50.00;41.33;31.00;46.00;;;;;;5095295;28;8838;-79
2022/07/05 05:50:44;;;;;;;;;44.67;38.33;30.90;46.70;;;;;;5095386;28;9377;-79
2022/07/05 05:53:10;;;;;;;;;39.00;35.00;30.50;48.10;;;;;;5095106;28;8751;-79
2022/07/05 05:55:35;;;;;;;;;40.33;36.00;30.20;48.50;;;;;;5076954;28;8807;-79
2022/07/05 05:58:14;;;;;;;;;39.33;34.33;30.30;48.10;;;;;;5094963;28;8820;-80
2022/07/05 06:00:41;;;;;;;;;38.67;34.67;30.50;47.20;;;;;;5095153;28;8847;-77
2022/07/05 06:03:08;;;;;;;;;45.00;37.33;30.60;46.50;;;;;;5095168;28;8795;-80
2022/07/05 06:05:33;;;;;;;;;38.67;35.33;30.80;46.40;;;;;;5094466;28;9437;-80
2022/07/05 06:07:59;;;;;;;;;37.00;33.67;30.80;46.00;;;;;;5094785;28;8784;-79
2022/07/05 06:10:30;;;;;;;;;43.00;38.00;30.80;46.20;;;;;;5094742;28;9416;-79
2022/07/05 06:12:58;;;;;;;;;38.00;34.00;30.80;46.30;;;;;;5094805;28;8783;-79
2022/07/05 06:15:25;;;;;;;;;42.33;36.33;30.90;46.20;;;;;;5094764;28;8760;-78
2022/07/05 06:17:52;;;;;;;;;39.67;35.33;31.00;45.80;;;;;;5094669;28;8827;-79
2022/07/05 06:20:20;;;;;;;;;42.33;36.33;31.00;45.60;;;;;;5096209;28;8884;-78
2022/07/05 06:22:47;;;;;;;;;40.33;36.00;31.00;45.70;;;;;;5097614;28;8763;-79
2022/07/05 06:25:13;;;;;;;;;43.00;38.00;31.10;45.80;;;;;;5094873;28;9386;-79
2022/07/05 06:27:43;;;;;;;;;46.00;37.00;31.10;46.00;;;;;;5094417;28;8772;-79
2022/07/05 06:30:12;;;;;;;;;41.67;36.33;31.10;45.90;;;;;;5094374;28;8776;-81
2022/07/05 06:32:38;;;;;;;;;42.33;36.33;31.00;45.80;;;;;;5094545;28;8775;-79
2022/07/05 06:35:05;;;;;;;;;39.33;35.00;31.00;45.80;;;;;;5094456;28;8760;-79
2022/07/05 06:37:48;;;;;;;;;38.67;34.67;31.00;45.80;;;;;;5094860;28;8836;-79
2022/07/05 06:40:19;;;;;;;;;42.67;36.00;31.00;46.10;;;;;;5094688;28;8892;-80
2022/07/05 06:42:45;;;;;;;;;36.67;33.67;30.90;46.50;;;;;;5094571;28;8764;-80
2022/07/05 06:45:11;;;;;;;;;40.33;35.33;30.80;47.10;;;;;;5094787;28;8748;-82
2022/07/05 06:47:37;;;;;;;;;33.00;31.67;30.80;47.40;;;;;;5094676;28;8832;-79
2022/07/05 06:50:05;;;;;;;;;33.33;29.67;30.80;47.00;;;;;;5094578;28;8791;-79
2022/07/05 06:52:32;;;;;;;;;32.00;29.67;30.70;45.50;;;;;;5094528;28;8772;-78
2022/07/05 06:54:59;;;;;;;;;31.67;30.00;30.80;44.90;;;;;;5094338;28;8795;-79
2022/07/05 06:57:25;;;;;;;;;26.00;26.00;30.60;45.20;;;;;;5094224;28;8760;-80
2022/07/05 06:59:51;;;;;;;;;22.67;22.67;30.60;45.10;;;;;;5094116;28;8800;-79
2022/07/05 07:02:21;;;;;;;;;29.67;29.67;30.70;44.90;;;;;;5094474;28;8814;-79
2022/07/05 07:04:48;;;;;;;;;23.00;23.00;30.50;45.40;;;;;;5094214;28;8764;-79
2022/07/05 07:10:03;;;;;;;;;28.67;26.33;30.30;44.90;;;;;;5094212;28;8763;-80
2022/07/05 07:12:31;;;;;;;;;28.00;24.33;30.40;43.60;;;;;;5094110;28;8747;-79
2022/07/05 07:14:57;;;;;;;;;18.00;18.00;30.50;43.40;;;;;;5093960;28;8796;-79
2022/07/05 07:17:24;;;;;;;;;27.00;27.00;30.60;43.70;;;;;;5094312;28;11493;-79
2022/07/05 07:19:50;;;;;;;;;32.00;29.00;30.60;43.80;;;;;;5097852;28;8838;-80
2022/07/05 07:22:16;;;;;;;;;28.67;28.67;30.70;43.80;;;;;;5098168;28;8760;-79
2022/07/05 07:24:42;;;;;;;;;25.67;25.33;30.60;44.50;;;;;;5097983;28;8760;-79
2022/07/05 07:27:08;;;;;;;;;24.67;24.67;30.50;45.10;;;;;;5097803;28;9433;-80
2022/07/05 07:29:38;;;;;;;;;21.33;21.33;30.30;45.30;;;;;;5097703;28;8756;-81
2022/07/05 07:32:06;;;;;;;;;26.33;26.33;30.20;45.10;;;;;;5097660;28;11431;-79
2022/07/05 07:34:32;;;;;;;;;26.00;26.00;30.20;45.40;;;;;;5079646;28;8768;-79
2022/07/05 07:36:58;;;;;;;;;26.67;26.67;30.20;45.70;;;;;;5097850;28;8760;-79
2022/07/05 07:39:26;;;;;;;;;25.00;25.00;30.30;45.20;;;;;;5097703;28;9492;-80
2022/07/05 07:41:52;;;;;;;;;27.00;25.67;30.40;44.60;;;;;;5097663;28;8783;-80
2022/07/05 07:44:18;;;;;;;;;23.00;22.00;30.10;45.30;;;;;;5097603;28;11451;-80
2022/07/05 07:46:44;;;;;;;;;23.67;23.67;30.30;45.00;;;;;;5097590;28;11467;-80
2022/07/05 07:49:11;;;;;;;;;22.33;22.33;30.60;43.60;;;;;;5097512;28;11473;-80
2022/07/05 07:51:37;;;;;;;;;23.33;23.33;30.80;43.20;;;;;;5097101;28;11450;-79
2022/07/05 07:54:03;;;;;;;;;28.33;28.33;30.80;43.70;;;;;;5097274;28;8802;-81
2022/07/05 07:56:29;;;;;;;;;26.00;24.00;30.90;43.60;;;;;;5097411;28;11435;-81
2022/07/05 07:58:55;;;;;;;;;21.00;21.00;31.00;43.30;;;;;;5097178;28;8819;-79
2022/07/05 08:01:22;;;;;;;;;21.67;21.67;31.20;43.30;;;;;;5097291;28;11461;-80
2022/07/05 08:03:48;;;;;;;;;20.33;20.33;31.20;43.00;;;;;;5097375;28;9441;-81
2022/07/05 08:06:15;;;;;;;;;19.67;17.67;31.30;42.30;;;;;;5097535;28;11472;-81
2022/07/05 08:08:44;;;;;;;;;24.00;24.00;31.30;41.60;;;;;;5097359;28;9511;-80
2022/07/05 08:11:11;;;;;;;;;20.33;20.33;31.50;41.60;;;;;;5096987;28;11419;-81
2022/07/05 08:13:39;;;;;;;;;25.00;24.00;31.60;41.30;;;;;;5096749;28;11474;-79
2022/07/05 08:16:05;;;;;;;;;22.00;22.00;31.70;41.20;;;;;;5078738;28;11483;-81
2022/07/05 08:24:18;;;;;;;;;22.00;22.00;31.90;40.20;;;;;;5096821;28;11432;-79
2022/07/05 08:26:44;;;;;;;;;23.67;22.33;32.00;40.20;;;;;;5096582;28;11446;-81
2022/07/05 08:29:12;;;;;;;;;22.33;22.33;32.00;40.00;;;;;;5096011;28;11428;-80
2022/07/05 08:31:42;;;;;;;;;25.33;24.00;32.00;39.30;;;;;;5078704;28;8876;-80
2022/07/05 08:34:09;;;;;;;;;23.00;22.33;32.00;39.60;;;;;;5096634;28;8768;-80
2022/07/05 08:36:35;;;;;;;;;23.33;23.00;32.10;39.40;;;;;;5096399;28;11535;-79
2022/07/05 08:39:01;;;;;;;;;25.33;25.33;32.00;39.30;;;;;;5096435;28;11605;-79
2022/07/05 08:41:28;;;;;;;;;23.33;23.33;32.00;39.40;;;;;;5096470;28;11432;-81
2022/07/05 08:43:57;;;;;;;;;23.33;22.67;32.10;38.30;;;;;;5096139;28;11457;-79
2022/07/05 08:46:25;;;;;;;;;20.00;18.00;32.20;38.80;;;;;;5096253;28;11525;-80
2022/07/05 08:48:51;;;;;;;;;18.67;18.67;32.20;39.40;;;;;;5096257;28;11572;-79
2022/07/05 08:51:22;;;;;;;;;23.33;22.00;32.30;38.70;;;;;;5096040;28;11461;-80
2022/07/05 08:53:49;;;;;;;;;17.33;17.33;31.90;39.30;;;;;;5096441;28;11496;-79
2022/07/05 08:56:16;;;;;;;;;25.67;25.00;31.60;40.20;;;;;;5078207;28;11460;-80
2022/07/05 08:58:43;;;;;;;;;21.00;20.00;31.50;40.40;;;;;;5095956;28;11422;-79
2022/07/05 09:01:10;;;;;;;;;24.67;24.67;31.80;40.10;;;;;;5078008;28;11541;-79
2022/07/05 09:03:42;;;;;;;;;22.33;21.67;31.80;39.50;;;;;;5095995;28;11482;-79
2022/07/05 09:06:09;;;;;;;;;24.00;23.33;32.10;39.80;;;;;;5095663;28;11488;-78
2022/07/05 09:08:40;;;;;;;;;22.67;22.67;32.40;39.30;;;;;;5095957;28;11454;-80
2022/07/05 09:11:12;;;;;;;;;21.33;21.33;32.60;39.10;;;;;;5095811;28;11446;-79
2022/07/05 09:13:43;;;;;;;;;24.00;22.67;32.80;38.60;;;;;;5095566;28;11447;-79
2022/07/05 09:16:11;;;;;;;;;23.00;23.00;32.80;38.40;;;;;;5095555;28;11537;-80
2022/07/05 09:18:46;;;;;;;;;20.33;20.33;33.00;38.60;;;;;;5095168;28;12143;-80
2022/07/05 09:21:18;;;;;;;;;23.25;21.50;33.30;38.40;;;;;;5095472;28;12066;-80
2022/07/05 09:23:45;;;;;;;;;22.67;21.00;32.90;37.70;;;;;;5095677;28;11483;-80
2022/07/05 09:26:11;;;;;;;;;22.00;22.00;32.60;38.80;;;;;;5095287;28;11413;-82
2022/07/05 09:28:37;;;;;;;;;24.67;24.67;32.80;38.60;;;;;;5095513;28;11425;-81
2022/07/05 09:31:03;;;;;;;;;16.67;16.67;33.00;38.40;;;;;;5095751;28;8740;-81
2022/07/05 09:33:29;;;;;;;;;23.33;22.33;32.80;38.70;;;;;;5095630;28;8748;-79
2022/07/05 09:36:01;;;;;;;;;19.75;19.50;33.00;38.60;;;;;;5095517;28;9405;-80
2022/07/05 09:38:27;;;;;;;;;21.00;21.00;33.00;39.00;;;;;;5095305;28;8759;-80
2022/07/05 09:40:57;;;;;;;;;21.67;21.67;33.20;39.00;;;;;;5094432;28;11477;-79
2022/07/05 09:43:23;;;;;;;;;24.25;20.50;33.30;38.90;;;;;;5095010;28;11460;-81
2022/07/05 09:46:03;;;;;;;;;24.00;21.00;33.30;38.70;;;;;;5095013;28;11453;-79
2022/07/05 09:48:31;;;;;;;;;18.50;18.50;33.30;38.50;;;;;;5095128;28;11506;-80
2022/07/05 09:51:12;;;;;;;;;20.75;20.75;33.50;38.50;;;;;;5077307;28;11452;-80
2022/07/05 09:53:49;;;;;;;;;21.50;21.50;33.30;38.20;;;;;;5095245;28;11440;-80
2022/07/05 09:56:15;;;;;;;;;21.67;21.00;33.40;39.00;;;;;;5094845;28;11454;-80
2022/07/05 09:58:41;;;;;;;;;16.50;16.25;32.90;39.80;;;;;;5094720;28;11474;-79
2022/07/05 10:01:28;;;;;;;;;19.67;19.67;32.90;40.00;;;;;;5095187;28;11409;-79
2022/07/05 10:04:04;;;;;;;;;20.00;20.00;32.60;40.80;;;;;;5076851;28;11569;-78
2022/07/05 10:06:32;;;;;;;;;23.00;23.00;32.60;41.00;;;;;;5094873;28;11447;-79
2022/07/05 10:08:59;;;;;;;;;23.33;21.33;32.80;40.80;;;;;;5095000;28;12138;-79
2022/07/05 10:11:26;;;;;;;;;18.67;18.67;33.10;40.30;;;;;;5094892;28;11554;-78
2022/07/05 10:13:54;;;;;;;;;22.33;22.33;33.30;40.60;;;;;;5094633;28;11458;-79
2022/07/05 10:16:22;;;;;;;;;24.67;24.67;33.10;40.70;;;;;;5094516;28;11617;-78
2022/07/05 10:18:51;;;;;;;;;24.00;22.33;33.20;42.00;;;;;;5076388;28;11537;-80
2022/07/05 10:21:18;;;;;;;;;22.00;20.50;33.40;40.60;;;;;;5094907;28;12060;-78
2022/07/05 10:23:46;;;;;;;;;21.75;20.00;33.40;40.40;;;;;;5094672;28;11555;-79
2022/07/05 10:26:14;;;;;;;;;21.67;21.00;33.30;40.50;;;;;;5094560;28;11467;-80
2022/07/05 10:28:41;;;;;;;;;21.25;21.25;33.50;40.70;;;;;;5094324;28;11437;-79
2022/07/05 10:31:10;;;;;;;;;20.00;20.00;33.70;40.20;;;;;;5094367;28;11516;-80
2022/07/05 10:33:37;;;;;;;;;17.00;17.00;33.70;39.70;;;;;;5094352;28;11551;-80
2022/07/05 10:36:04;;;;;;;;;18.33;18.33;33.30;39.80;;;;;;5094637;28;11432;-79
2022/07/05 10:38:34;;;;;;;;;22.75;21.75;33.30;40.40;;;;;;5094411;28;11412;-80
2022/07/05 10:41:04;;;;;;;;;21.25;20.75;32.90;40.30;;;;;;5094545;28;12276;-78
2022/07/05 10:43:31;;;;;;;;;25.33;22.67;32.60;40.50;;;;;;5076287;28;11460;-78
2022/07/05 10:45:57;;;;;;;;;24.00;24.00;32.40;41.10;;;;;;5094815;28;11431;-79
2022/07/05 10:48:27;;;;;;;;;19.33;17.67;32.60;41.20;;;;;;5094395;28;11641;-79
2022/07/05 10:51:23;;;;;;;;;25.00;22.33;32.80;40.10;;;;;;5094479;28;9426;-79
2022/07/05 10:53:55;;;;;;;;;20.00;20.00;33.00;40.40;;;;;;5016034;28;11492;-81
2022/07/05 10:56:21;;;;;;;;;21.67;21.67;33.40;40.30;;;;;;5016138;28;11508;-79
2022/07/05 10:58:48;;;;;;;;;19.75;19.75;33.40;40.80;;;;;;5016278;28;11562;-79
2022/07/05 11:01:19;;;;;;;;;23.00;22.00;33.80;40.70;;;;;;5016096;28;8768;-80
2022/07/05 11:03:47;;;;;;;;;18.67;17.67;34.20;39.70;;;;;;5015902;28;11472;-80
2022/07/05 11:06:41;;;;;;;;;21.75;21.75;34.20;38.90;;;;;;5015856;28;11463;-80
2022/07/05 11:09:09;;;;;;;;;21.00;21.00;34.20;39.10;;;;;;5013385;28;11480;-79
2022/07/05 11:11:41;;;;;;;;;26.67;26.33;34.10;38.80;;;;;;5015838;28;12024;-79
2022/07/05 11:14:22;;;;;;;;;21.75;21.75;34.20;38.80;;;;;;5015613;28;11514;-79
2022/07/05 11:17:08;;;;;;;;;27.00;25.67;34.50;38.50;;;;;;5015636;28;11622;-79
2022/07/05 11:19:34;;;;;;;;;20.50;20.50;34.60;38.40;;;;;;5015506;28;11597;-79
2022/07/05 11:22:02;;;;;;;;;23.00;22.50;34.70;37.90;;;;;;5015675;28;11493;-80
2022/07/05 11:24:35;;;;;;;;;23.50;23.50;34.70;37.70;;;;;;5015989;28;12230;-80
2022/07/05 11:27:04;;;;;;;;;21.00;20.50;34.80;37.20;;;;;;5015633;28;11477;-80
2022/07/05 11:29:43;;;;;;;;;19.75;19.75;34.70;37.80;;;;;;5033434;28;11451;-80
2022/07/05 11:32:14;;;;;;;;;26.33;25.00;34.80;37.20;;;;;;5097558;28;11430;-80
2022/07/05 11:34:42;;;;;;;;;22.75;22.75;35.10;37.20;;;;;;5097798;28;11434;-81
2022/07/05 11:37:14;;;;;;;;;22.00;22.00;35.40;36.30;;;;;;5079637;28;11475;-81
2022/07/05 11:39:43;;;;;;;;;24.00;24.00;35.80;36.00;;;;;;5098131;28;11485;-80
2022/07/05 11:42:10;;;;;;;;;22.00;21.75;36.00;35.80;;;;;;5097345;28;11431;-79
2022/07/05 11:44:40;;;;;;;;;24.50;24.50;36.80;34.70;;;;;;5079418;28;11456;-79
2022/07/05 11:47:06;;;;;;;;;22.75;22.75;37.60;33.30;;;;;;5097300;28;11430;-79
2022/07/05 11:49:32;;;;;;;;;20.50;20.50;38.40;32.20;;;;;;5097293;28;11463;-80
2022/07/05 11:52:02;;;;;;;;;17.00;17.00;39.80;30.30;;;;;;5097369;28;11450;-79
2022/07/05 11:54:33;;;;;;;;;19.75;19.75;40.70;28.80;;;;;;5097116;28;11423;-82
2022/07/05 11:57:02;;;;;;;;;20.50;20.50;40.50;28.30;;;;;;5097224;28;11625;-79
2022/07/05 11:59:28;;;;;;;;;17.50;17.50;40.30;28.60;;;;;;5097268;28;11507;-80
2022/07/05 12:01:55;;;;;;;;;17.25;17.25;40.60;28.50;;;;;;5097358;28;11448;-79
2022/07/05 12:04:26;;;;;;;;;21.00;21.00;40.70;28.70;;;;;;5078481;28;12141;-82
2022/07/05 12:06:52;;;;;;;;;20.00;20.00;40.30;28.80;;;;;;5097312;28;11553;-80
2022/07/05 12:12:47;;;;;;;;;19.00;19.00;41.10;28.30;;;;;;5084518;28;11420;-79
2022/07/05 12:15:21;;;;;;;;;20.00;20.00;42.00;27.00;;;;;;5096812;28;11468;-81
2022/07/05 12:17:49;;;;;;;;;20.00;20.00;41.50;27.70;;;;;;5096527;28;11498;-81
2022/07/05 12:20:20;;;;;;;;;20.33;20.33;41.50;27.30;;;;;;5096709;28;11552;-81
2022/07/05 12:22:46;;;;;;;;;17.00;17.00;42.20;27.90;;;;;;5096741;28;12144;-81
2022/07/05 12:25:17;;;;;;;;;18.33;18.33;43.50;26.40;;;;;;5097143;28;11415;-82
2022/07/05 12:27:44;;;;;;;;;16.33;16.33;44.70;25.00;;;;;;5096978;28;8724;-80
2022/07/05 12:30:12;;;;;;;;;17.33;17.33;45.30;23.90;;;;;;5096581;28;11425;-81
2022/07/05 12:32:58;;;;;;;;;29.33;29.33;45.00;24.10;;;;;;5097235;28;11455;-80
2022/07/05 12:35:40;;;;;;;;;18.75;18.75;45.80;23.90;;;;;;5097734;28;8748;-80
2022/07/05 12:38:10;;;;;;;;;21.00;21.00;46.60;23.20;;;;;;5096198;28;11450;-79
2022/07/05 12:40:38;;;;;;;;;18.00;18.00;47.10;23.10;;;;;;5097704;28;12176;-79
2022/07/05 12:43:15;;;;;;;;;19.33;19.33;47.30;22.80;;;;;;5078695;28;11656;-80
2022/07/05 12:45:43;;;;;;;;;19.00;19.00;47.90;22.00;;;;;;5096229;28;11474;-80
2022/07/05 12:48:11;;;;;;;;;18.33;18.33;48.30;21.70;;;;;;5096341;28;11593;-82